sensor_id;sensor_type;location;lat;lon;timestamp;pressure;altitude;pressure_sealevel;temperature;humidity
11415;BME280;5763;42.714;23.244;2023-07-08T00:00:13;94880.41;;;20.38;93.59
11415;BME280;5763;42.714;23.244;2023-07-08T00:02:40;94878.63;;;20.46;92.99
11415;BME280;5763;42.714;23.244;2023-07-08T00:05:09;94881.13;;;20.49;92.86
11415;BME280;5763;42.714;23.244;2023-07-08T00:07:37;94878.84;;;20.48;92.50
11415;BME280;5763;42.714;23.244;2023-07-08T00:10:12;94865.50;;;20.41;92.65
11415;BME280;5763;42.714;23.244;2023-07-08T00:12:39;94870.47;;;20.53;92.08
11415;BME280;5763;42.714;23.244;2023-07-08T00:15:07;94866.97;;;20.47;91.83
11415;BME280;5763;42.714;23.244;2023-07-08T00:17:34;94871.28;;;20.48;92.03
11415;BME280;5763;42.714;23.244;2023-07-08T00:20:01;94864.22;;;20.36;92.70
11415;BME280;5763;42.714;23.244;2023-07-08T00:22:27;94862.22;;;20.37;92.89
11415;BME280;5763;42.714;23.244;2023-07-08T00:24:55;94858.16;;;20.32;92.96
11415;BME280;5763;42.714;23.244;2023-07-08T00:27:22;94866.00;;;20.34;92.87
11415;BME280;5763;42.714;23.244;2023-07-08T00:29:49;94856.69;;;20.20;93.50
11415;BME280;5763;42.714;23.244;2023-07-08T00:32:15;94861.47;;;20.20;94.15
11415;BME280;5763;42.714;23.244;2023-07-08T00:34:42;94867.28;;;20.22;94.45
11415;BME280;5763;42.714;23.244;2023-07-08T00:37:11;94854.16;;;20.17;94.64
11415;BME280;5763;42.714;23.244;2023-07-08T00:39:38;94849.38;;;20.12;95.32
11415;BME280;5763;42.714;23.244;2023-07-08T00:42:14;94848.31;;;20.04;95.66
11415;BME280;5763;42.714;23.244;2023-07-08T00:44:43;94851.88;;;20.10;95.54
11415;BME280;5763;42.714;23.244;2023-07-08T00:47:11;94843.81;;;20.12;95.26
11415;BME280;5763;42.714;23.244;2023-07-08T00:49:41;94848.59;;;20.17;95.31
11415;BME280;5763;42.714;23.244;2023-07-08T00:52:21;94842.03;;;20.14;94.50
11415;BME280;5763;42.714;23.244;2023-07-08T00:54:53;94840.78;;;20.15;94.38
11415;BME280;5763;42.714;23.244;2023-07-08T00:57:23;94796.34;;;19.77;94.83
11415;BME280;5763;42.714;23.244;2023-07-08T00:59:56;94834.69;;;20.06;95.01
11415;BME280;5763;42.714;23.244;2023-07-08T01:02:27;94832.69;;;19.95;95.32
11415;BME280;5763;42.714;23.244;2023-07-08T01:04:57;94840.75;;;19.99;95.56
11415;BME280;5763;42.714;23.244;2023-07-08T01:07:25;94830.94;;;19.87;96.19
11415;BME280;5763;42.714;23.244;2023-07-08T01:09:55;94829.41;;;19.86;96.60
11415;BME280;5763;42.714;23.244;2023-07-08T01:12:28;94821.34;;;19.77;97.00
11415;BME280;5763;42.714;23.244;2023-07-08T01:14:56;94828.41;;;19.78;96.86
11415;BME280;5763;42.714;23.244;2023-07-08T01:17:26;94825.63;;;19.78;96.82
11415;BME280;5763;42.714;23.244;2023-07-08T01:19:58;94794.84;;;19.54;96.38
11415;BME280;5763;42.714;23.244;2023-07-08T01:22:27;94829.69;;;19.66;97.31
11415;BME280;5763;42.714;23.244;2023-07-08T01:24:58;94816.56;;;19.61;97.69
11415;BME280;5763;42.714;23.244;2023-07-08T01:27:29;94824.63;;;19.70;97.13
11415;BME280;5763;42.714;23.244;2023-07-08T01:29:57;94816.53;;;19.72;96.97
11415;BME280;5763;42.714;23.244;2023-07-08T01:32:25;94824.38;;;19.73;96.16
11415;BME280;5763;42.714;23.244;2023-07-08T01:34:52;94833.69;;;19.81;95.48
11415;BME280;5763;42.714;23.244;2023-07-08T01:37:30;94835.72;;;19.75;95.52
11415;BME280;5763;42.714;23.244;2023-07-08T01:39:58;94829.94;;;19.90;93.92
11415;BME280;5763;42.714;23.244;2023-07-08T01:42:39;94828.63;;;19.96;93.41
11415;BME280;5763;42.714;23.244;2023-07-08T01:45:10;94826.88;;;19.99;92.83
11415;BME280;5763;42.714;23.244;2023-07-08T01:47:38;94826.38;;;19.95;93.60
11415;BME280;5763;42.714;23.244;2023-07-08T01:50:06;94816.03;;;20.01;93.04
11415;BME280;5763;42.714;23.244;2023-07-08T01:52:35;94810.97;;;19.94;92.93
11415;BME280;5763;42.714;23.244;2023-07-08T01:55:03;94811.47;;;19.98;93.34
11415;BME280;5763;42.714;23.244;2023-07-08T01:57:31;94812.97;;;20.04;92.63
11415;BME280;5763;42.714;23.244;2023-07-08T01:59:58;94811.19;;;20.07;92.56
11415;BME280;5763;42.714;23.244;2023-07-08T02:02:25;94811.97;;;20.13;92.43
11415;BME280;5763;42.714;23.244;2023-07-08T02:04:52;94817.78;;;20.09;92.45
11415;BME280;5763;42.714;23.244;2023-07-08T02:07:19;94809.69;;;20.00;92.84
11415;BME280;5763;42.714;23.244;2023-07-08T02:09:47;94798.34;;;19.98;92.83
11415;BME280;5763;42.714;23.244;2023-07-08T02:12:13;94810.22;;;19.88;93.26
11415;BME280;5763;42.714;23.244;2023-07-08T02:14:40;94815.78;;;19.82;94.18
11415;BME280;5763;42.714;23.244;2023-07-08T02:17:07;94818.03;;;19.84;94.11
11415;BME280;5763;42.714;23.244;2023-07-08T02:19:33;94812.25;;;19.87;93.62
11415;BME280;5763;42.714;23.244;2023-07-08T02:22:00;94822.09;;;19.83;94.08
11415;BME280;5763;42.714;23.244;2023-07-08T02:24:27;94813.50;;;19.81;93.89
11415;BME280;5763;42.714;23.244;2023-07-08T02:26:55;94805.69;;;19.74;93.52
11415;BME280;5763;42.714;23.244;2023-07-08T02:29:22;94816.53;;;19.83;93.61
11415;BME280;5763;42.714;23.244;2023-07-08T02:31:49;94815.53;;;19.86;93.08
11415;BME280;5763;42.714;23.244;2023-07-08T02:34:16;94824.59;;;19.92;92.91
11415;BME280;5763;42.714;23.244;2023-07-08T02:36:43;94833.97;;;19.78;93.86
11415;BME280;5763;42.714;23.244;2023-07-08T02:39:09;94831.44;;;19.80;93.68
11415;BME280;5763;42.714;23.244;2023-07-08T02:41:36;94831.16;;;19.89;93.48
11415;BME280;5763;42.714;23.244;2023-07-08T02:44:04;94840.78;;;19.88;93.81
11415;BME280;5763;42.714;23.244;2023-07-08T02:46:31;94835.47;;;19.79;93.65
11415;BME280;5763;42.714;23.244;2023-07-08T02:48:58;94846.06;;;19.91;93.29
11415;BME280;5763;42.714;23.244;2023-07-08T02:51:25;94855.94;;;19.87;93.63
11415;BME280;5763;42.714;23.244;2023-07-08T02:53:51;94861.25;;;19.85;93.43
11415;BME280;5763;42.714;23.244;2023-07-08T02:56:18;94863.50;;;19.92;93.32
11415;BME280;5763;42.714;23.244;2023-07-08T02:58:45;94865.78;;;19.93;92.82
11415;BME280;5763;42.714;23.244;2023-07-08T03:01:13;94857.94;;;19.92;92.80
11415;BME280;5763;42.714;23.244;2023-07-08T03:03:43;94863.50;;;20.03;92.55
11415;BME280;5763;42.714;23.244;2023-07-08T03:06:10;94860.72;;;19.97;92.24
11415;BME280;5763;42.714;23.244;2023-07-08T03:08:37;94868.03;;;20.00;92.95
11415;BME280;5763;42.714;23.244;2023-07-08T03:11:05;94860.47;;;20.01;92.49
11415;BME280;5763;42.714;23.244;2023-07-08T03:13:33;94858.97;;;20.00;92.36
11415;BME280;5763;42.714;23.244;2023-07-08T03:16:01;94866.03;;;20.01;92.44
11415;BME280;5763;42.714;23.244;2023-07-08T03:18:29;94861.72;;;20.05;92.18
11415;BME280;5763;42.714;23.244;2023-07-08T03:20:57;94865.53;;;20.02;92.18
11415;BME280;5763;42.714;23.244;2023-07-08T03:23:25;94848.84;;;19.97;93.51
11415;BME280;5763;42.714;23.244;2023-07-08T03:25:52;94860.97;;;20.05;93.22
11415;BME280;5763;42.714;23.244;2023-07-08T03:28:19;94858.97;;;20.00;91.92
11415;BME280;5763;42.714;23.244;2023-07-08T03:30:51;94849.88;;;19.88;92.36
11415;BME280;5763;42.714;23.244;2023-07-08T03:33:18;94856.19;;;20.00;91.93
11415;BME280;5763;42.714;23.244;2023-07-08T03:35:46;94854.41;;;20.02;91.75
11415;BME280;5763;42.714;23.244;2023-07-08T03:38:13;94869.81;;;20.09;91.42
11415;BME280;5763;42.714;23.244;2023-07-08T03:40:40;94855.66;;;20.07;91.47
11415;BME280;5763;42.714;23.244;2023-07-08T03:43:07;94847.59;;;19.98;91.34
11415;BME280;5763;42.714;23.244;2023-07-08T03:45:34;94844.06;;;20.08;91.16
11415;BME280;5763;42.714;23.244;2023-07-08T03:48:01;94850.88;;;20.13;91.02
11415;BME280;5763;42.714;23.244;2023-07-08T03:50:28;94849.63;;;19.97;91.65
11415;BME280;5763;42.714;23.244;2023-07-08T03:52:56;94845.59;;;20.09;91.01
11415;BME280;5763;42.714;23.244;2023-07-08T03:55:23;94849.38;;;20.12;90.96
11415;BME280;5763;42.714;23.244;2023-07-08T03:57:50;94832.41;;;20.04;90.79
11415;BME280;5763;42.714;23.244;2023-07-08T04:00:17;94831.91;;;20.00;91.88
11415;BME280;5763;42.714;23.244;2023-07-08T04:02:45;94834.19;;;20.02;91.92
11415;BME280;5763;42.714;23.244;2023-07-08T04:05:14;94840.00;;;20.04;91.86
11415;BME280;5763;42.714;23.244;2023-07-08T04:07:41;94849.34;;;20.01;92.18
11415;BME280;5763;42.714;23.244;2023-07-08T04:10:10;94844.31;;;19.99;91.78
11415;BME280;5763;42.714;23.244;2023-07-08T04:12:38;94845.31;;;20.07;91.25
11415;BME280;5763;42.714;23.244;2023-07-08T04:15:08;94850.09;;;20.12;91.12
11415;BME280;5763;42.714;23.244;2023-07-08T04:17:35;94865.28;;;20.17;91.27
11415;BME280;5763;42.714;23.244;2023-07-08T04:20:05;94859.69;;;20.22;91.88
11415;BME280;5763;42.714;23.244;2023-07-08T04:22:34;94847.03;;;20.32;90.31
11415;BME280;5763;42.714;23.244;2023-07-08T04:25:00;94852.13;;;20.28;90.17
11415;BME280;5763;42.714;23.244;2023-07-08T04:27:32;94854.13;;;20.22;90.81
11415;BME280;5763;42.714;23.244;2023-07-08T04:29:59;94866.78;;;20.23;91.33
11415;BME280;5763;42.714;23.244;2023-07-08T04:32:26;94858.44;;;20.23;91.22
11415;BME280;5763;42.714;23.244;2023-07-08T04:34:53;94873.34;;;20.15;91.52
11415;BME280;5763;42.714;23.244;2023-07-08T04:37:20;94870.09;;;20.11;91.95
11415;BME280;5763;42.714;23.244;2023-07-08T04:39:46;94866.53;;;20.16;92.33
11415;BME280;5763;42.714;23.244;2023-07-08T04:42:13;94860.47;;;20.23;92.14
11415;BME280;5763;42.714;23.244;2023-07-08T04:44:44;94866.03;;;20.23;91.65
11415;BME280;5763;42.714;23.244;2023-07-08T04:47:10;94855.66;;;20.23;91.34
11415;BME280;5763;42.714;23.244;2023-07-08T04:49:39;94858.41;;;20.29;91.78
11415;BME280;5763;42.714;23.244;2023-07-08T04:52:07;94864.75;;;20.29;91.64
11415;BME280;5763;42.714;23.244;2023-07-08T04:54:33;94868.78;;;20.34;91.76
11415;BME280;5763;42.714;23.244;2023-07-08T04:57:00;94863.72;;;20.32;91.84
11415;BME280;5763;42.714;23.244;2023-07-08T04:59:27;94878.63;;;20.46;91.36
11415;BME280;5763;42.714;23.244;2023-07-08T05:02:01;94883.91;;;20.44;91.11
11415;BME280;5763;42.714;23.244;2023-07-08T05:04:27;94879.63;;;20.43;90.76
11415;BME280;5763;42.714;23.244;2023-07-08T05:06:54;94884.44;;;20.31;91.13
11415;BME280;5763;42.714;23.244;2023-07-08T05:09:21;94883.69;;;20.20;91.68
11415;BME280;5763;42.714;23.244;2023-07-08T05:11:51;94877.63;;;20.21;92.18
11415;BME280;5763;42.714;23.244;2023-07-08T05:14:18;94886.97;;;20.24;92.54
11415;BME280;5763;42.714;23.244;2023-07-08T05:16:45;94877.63;;;20.21;92.56
11415;BME280;5763;42.714;23.244;2023-07-08T05:19:14;94884.22;;;20.24;92.44
11415;BME280;5763;42.714;23.244;2023-07-08T05:21:41;94882.41;;;20.37;91.98
11415;BME280;5763;42.714;23.244;2023-07-08T05:24:10;94881.94;;;20.22;90.87
11415;BME280;5763;42.714;23.244;2023-07-08T05:26:37;94890.03;;;20.26;91.44
11415;BME280;5763;42.714;23.244;2023-07-08T05:29:04;94890.00;;;20.31;91.19
11415;BME280;5763;42.714;23.244;2023-07-08T05:31:31;94885.47;;;20.28;91.44
11415;BME280;5763;42.714;23.244;2023-07-08T05:33:58;94893.06;;;20.33;90.52
11415;BME280;5763;42.714;23.244;2023-07-08T05:36:26;94888.75;;;20.27;90.77
11415;BME280;5763;42.714;23.244;2023-07-08T05:38:53;94891.53;;;20.38;90.57
11415;BME280;5763;42.714;23.244;2023-07-08T05:41:19;94905.38;;;20.49;90.89
11415;BME280;5763;42.714;23.244;2023-07-08T05:43:46;94861.47;;;20.31;90.07
11415;BME280;5763;42.714;23.244;2023-07-08T05:46:13;94894.00;;;20.58;89.24
11415;BME280;5763;42.714;23.244;2023-07-08T05:48:39;94910.41;;;20.61;89.46
11415;BME280;5763;42.714;23.244;2023-07-08T05:51:06;94909.88;;;20.74;87.59
11415;BME280;5763;42.714;23.244;2023-07-08T05:53:34;94919.00;;;20.69;85.51
11415;BME280;5763;42.714;23.244;2023-07-08T05:56:02;94919.53;;;20.62;86.29
11415;BME280;5763;42.714;23.244;2023-07-08T05:58:29;94919.28;;;20.54;85.48
11415;BME280;5763;42.714;23.244;2023-07-08T06:00:57;94916.00;;;20.50;86.01
11415;BME280;5763;42.714;23.244;2023-07-08T06:03:23;94924.59;;;20.58;86.31
11415;BME280;5763;42.714;23.244;2023-07-08T06:05:52;94929.38;;;20.57;85.46
11415;BME280;5763;42.714;23.244;2023-07-08T06:08:20;94930.13;;;20.69;85.74
11415;BME280;5763;42.714;23.244;2023-07-08T06:10:49;94921.00;;;20.79;85.00
11415;BME280;5763;42.714;23.244;2023-07-08T06:13:16;94933.88;;;20.88;84.64
11415;BME280;5763;42.714;23.244;2023-07-08T06:15:43;94935.09;;;21.09;83.74
11415;BME280;5763;42.714;23.244;2023-07-08T06:18:10;94936.81;;;21.23;82.11
11415;BME280;5763;42.714;23.244;2023-07-08T06:20:36;94928.13;;;21.32;80.64
11415;BME280;5763;42.714;23.244;2023-07-08T06:23:03;94930.94;;;21.32;79.65
11415;BME280;5763;42.714;23.244;2023-07-08T06:25:30;94942.56;;;21.36;79.63
11415;BME280;5763;42.714;23.244;2023-07-08T06:27:58;94941.31;;;21.31;79.64
11415;BME280;5763;42.714;23.244;2023-07-08T06:30:25;94933.97;;;21.34;79.50
11415;BME280;5763;42.714;23.244;2023-07-08T06:32:51;94935.19;;;21.38;79.97
11415;BME280;5763;42.714;23.244;2023-07-08T06:35:18;94951.09;;;21.49;80.27
11415;BME280;5763;42.714;23.244;2023-07-08T06:37:45;94938.41;;;21.59;79.18
11415;BME280;5763;42.714;23.244;2023-07-08T06:40:12;94936.06;;;21.68;79.17
11415;BME280;5763;42.714;23.244;2023-07-08T06:42:39;94937.56;;;21.75;78.75
11415;BME280;5763;42.714;23.244;2023-07-08T06:45:08;94943.88;;;21.75;76.14
11415;BME280;5763;42.714;23.244;2023-07-08T06:47:35;94933.22;;;21.79;74.85
11415;BME280;5763;42.714;23.244;2023-07-08T06:50:02;94938.59;;;21.72;73.88
11415;BME280;5763;42.714;23.244;2023-07-08T06:52:29;94934.53;;;21.67;74.30
11415;BME280;5763;42.714;23.244;2023-07-08T06:54:59;94948.97;;;21.66;74.57
11415;BME280;5763;42.714;23.244;2023-07-08T07:02:20;94953.31;;;21.61;72.93
11415;BME280;5763;42.714;23.244;2023-07-08T07:04:47;94960.13;;;21.71;73.83
11415;BME280;5763;42.714;23.244;2023-07-08T07:07:14;94957.56;;;21.73;73.01
11415;BME280;5763;42.714;23.244;2023-07-08T07:09:40;94958.78;;;21.83;73.94
11415;BME280;5763;42.714;23.244;2023-07-08T07:12:08;94958.19;;;21.96;75.52
11415;BME280;5763;42.714;23.244;2023-07-08T07:14:35;94952.34;;;21.94;73.38
11415;BME280;5763;42.714;23.244;2023-07-08T07:17:01;94949.25;;;22.03;73.75
11415;BME280;5763;42.714;23.244;2023-07-08T07:19:29;94960.06;;;22.17;73.34
11415;BME280;5763;42.714;23.244;2023-07-08T07:21:56;94965.94;;;22.43;74.78
11415;BME280;5763;42.714;23.244;2023-07-08T07:24:23;94973.91;;;22.28;71.12
11415;BME280;5763;42.714;23.244;2023-07-08T07:26:50;94986.53;;;22.35;70.83
11415;BME280;5763;42.714;23.244;2023-07-08T07:29:17;94989.41;;;22.24;71.13
11415;BME280;5763;42.714;23.244;2023-07-08T07:31:46;94987.09;;;22.28;73.33
11415;BME280;5763;42.714;23.244;2023-07-08T07:34:13;94984.06;;;22.26;73.95
11415;BME280;5763;42.714;23.244;2023-07-08T07:36:42;94983.78;;;22.29;70.73
11415;BME280;5763;42.714;23.244;2023-07-08T07:39:09;95000.25;;;22.33;70.56
11415;BME280;5763;42.714;23.244;2023-07-08T07:41:35;94984.16;;;22.50;72.50
11415;BME280;5763;42.714;23.244;2023-07-08T07:44:02;94979.84;;;22.49;70.96
11415;BME280;5763;42.714;23.244;2023-07-08T07:46:29;94985.97;;;22.42;68.45
11415;BME280;5763;42.714;23.244;2023-07-08T07:48:56;94978.94;;;22.30;69.20
11415;BME280;5763;42.714;23.244;2023-07-08T07:51:22;94983.78;;;22.29;70.09
11415;BME280;5763;42.714;23.244;2023-07-08T07:53:50;94986.09;;;22.25;70.16
11415;BME280;5763;42.714;23.244;2023-07-08T07:56:17;94988.13;;;22.25;71.65
11415;BME280;5763;42.714;23.244;2023-07-08T07:58:44;94987.09;;;22.28;71.71
11415;BME280;5763;42.714;23.244;2023-07-08T08:01:11;94990.19;;;22.19;72.60
11415;BME280;5763;42.714;23.244;2023-07-08T08:03:38;94995.03;;;22.18;71.23
11415;BME280;5763;42.714;23.244;2023-07-08T08:06:05;94996.81;;;22.16;70.02
11415;BME280;5763;42.714;23.244;2023-07-08T08:08:32;94997.28;;;22.20;69.59
11415;BME280;5763;42.714;23.244;2023-07-08T08:11:00;94989.47;;;22.18;70.79
11415;BME280;5763;42.714;23.244;2023-07-08T08:13:27;94951.25;;;22.08;72.02
11415;BME280;5763;42.714;23.244;2023-07-08T08:15:56;94973.16;;;22.28;73.58
11415;BME280;5763;42.714;23.244;2023-07-08T08:18:22;94945.94;;;22.10;71.07
11415;BME280;5763;42.714;23.244;2023-07-08T08:20:50;94986.00;;;22.36;72.23
11415;BME280;5763;42.714;23.244;2023-07-08T08:23:17;94987.31;;;22.30;69.69
11415;BME280;5763;42.714;23.244;2023-07-08T08:25:43;94993.34;;;22.39;70.00
11415;BME280;5763;42.714;23.244;2023-07-08T08:28:12;94992.34;;;22.37;69.73
11415;BME280;5763;42.714;23.244;2023-07-08T08:30:39;94979.91;;;22.38;70.12
11415;BME280;5763;42.714;23.244;2023-07-08T08:33:05;94976.53;;;22.50;72.38
11415;BME280;5763;42.714;23.244;2023-07-08T08:35:32;94975.44;;;22.59;73.06
11415;BME280;5763;42.714;23.244;2023-07-08T08:37:59;94966.34;;;22.58;71.97
11415;BME280;5763;42.714;23.244;2023-07-08T08:40:29;94973.13;;;22.63;72.19
11415;BME280;5763;42.714;23.244;2023-07-08T08:42:59;94965.31;;;22.85;70.98
11415;BME280;5763;42.714;23.244;2023-07-08T08:45:29;94954.56;;;23.13;68.89
11415;BME280;5763;42.714;23.244;2023-07-08T08:48:00;94963.59;;;23.49;68.66
11415;BME280;5763;42.714;23.244;2023-07-08T08:50:31;94970.69;;;23.50;67.63
11415;BME280;5763;42.714;23.244;2023-07-08T08:53:01;94953.44;;;23.46;69.52
11415;BME280;5763;42.714;23.244;2023-07-08T08:55:29;94977.09;;;23.45;67.07
11415;BME280;5763;42.714;23.244;2023-07-08T08:58:06;94965.91;;;23.45;67.93
11415;BME280;5763;42.714;23.244;2023-07-08T09:00:45;94969.91;;;23.49;64.60
11415;BME280;5763;42.714;23.244;2023-07-08T09:03:16;94975.66;;;23.75;67.45
11415;BME280;5763;42.714;23.244;2023-07-08T09:05:45;94976.22;;;23.74;67.96
11415;BME280;5763;42.714;23.244;2023-07-08T09:08:15;94976.44;;;23.57;66.55
11415;BME280;5763;42.714;23.244;2023-07-08T09:10:45;94981.50;;;23.59;66.60
11415;BME280;5763;42.714;23.244;2023-07-08T09:13:21;94964.47;;;23.57;68.29
11415;BME280;5763;42.714;23.244;2023-07-08T09:15:58;94973.22;;;23.48;66.39
11415;BME280;5763;42.714;23.244;2023-07-08T09:18:33;94962.34;;;23.44;64.40
11415;BME280;5763;42.714;23.244;2023-07-08T09:21:15;94961.63;;;23.44;63.56
11415;BME280;5763;42.714;23.244;2023-07-08T09:23:45;94968.72;;;23.45;65.21
11415;BME280;5763;42.714;23.244;2023-07-08T09:26:17;94968.25;;;23.41;65.85
11415;BME280;5763;42.714;23.244;2023-07-08T09:28:45;94960.94;;;23.38;66.94
11415;BME280;5763;42.714;23.244;2023-07-08T09:31:21;94964.56;;;23.51;65.61
11415;BME280;5763;42.714;23.244;2023-07-08T09:33:50;94942.59;;;23.61;63.70
11415;BME280;5763;42.714;23.244;2023-07-08T09:36:22;94956.19;;;23.70;64.73
11415;BME280;5763;42.714;23.244;2023-07-08T09:38:50;94951.47;;;23.78;64.96
11415;BME280;5763;42.714;23.244;2023-07-08T09:41:32;94953.44;;;23.83;65.53
11415;BME280;5763;42.714;23.244;2023-07-08T09:44:13;94935.84;;;23.88;65.02
11415;BME280;5763;42.714;23.244;2023-07-08T09:46:42;94938.38;;;24.23;65.05
11415;BME280;5763;42.714;23.244;2023-07-08T09:49:15;94929.44;;;24.56;65.54
11415;BME280;5763;42.714;23.244;2023-07-08T09:51:43;94937.06;;;24.87;63.49
11415;BME280;5763;42.714;23.244;2023-07-08T09:54:10;94928.66;;;25.00;59.24
11415;BME280;5763;42.714;23.244;2023-07-08T09:56:41;94912.16;;;25.22;60.08
11415;BME280;5763;42.714;23.244;2023-07-08T09:59:12;94917.22;;;25.37;60.24
11415;BME280;5763;42.714;23.244;2023-07-08T10:01:42;94927.38;;;25.40;57.47
11415;BME280;5763;42.714;23.244;2023-07-08T10:04:11;94912.66;;;25.60;59.00
11415;BME280;5763;42.714;23.244;2023-07-08T10:06:38;94915.66;;;25.75;56.99
11415;BME280;5763;42.714;23.244;2023-07-08T10:09:12;94908.31;;;25.72;59.58
11415;BME280;5763;42.714;23.244;2023-07-08T10:11:47;94921.69;;;25.79;57.79
11415;BME280;5763;42.714;23.244;2023-07-08T10:14:21;94904.50;;;25.82;56.36
11415;BME280;5763;42.714;23.244;2023-07-08T10:16:52;94907.38;;;26.03;56.71
11415;BME280;5763;42.714;23.244;2023-07-08T10:19:20;94905.25;;;26.16;56.69
11415;BME280;5763;42.714;23.244;2023-07-08T10:21:52;94906.16;;;26.32;55.68
11415;BME280;5763;42.714;23.244;2023-07-08T10:24:38;94902.47;;;26.37;53.40
11415;BME280;5763;42.714;23.244;2023-07-08T10:27:17;94889.50;;;26.54;56.11
11415;BME280;5763;42.714;23.244;2023-07-08T10:29:53;94896.00;;;26.70;53.11
11415;BME280;5763;42.714;23.244;2023-07-08T10:32:31;94875.25;;;26.73;53.78
11415;BME280;5763;42.714;23.244;2023-07-08T10:35:07;94880.22;;;26.87;54.97
11415;BME280;5763;42.714;23.244;2023-07-08T10:37:42;94887.19;;;26.94;52.38
11415;BME280;5763;42.714;23.244;2023-07-08T10:40:28;94872.28;;;27.06;53.29
11415;BME280;5763;42.714;23.244;2023-07-08T10:43:18;94880.06;;;27.21;52.97
11415;BME280;5763;42.714;23.244;2023-07-08T10:46:05;94872.06;;;27.32;52.70
11415;BME280;5763;42.714;23.244;2023-07-08T10:49:00;94877.19;;;27.41;54.38
11415;BME280;5763;42.714;23.244;2023-07-08T10:51:37;94877.91;;;27.42;52.43
11415;BME280;5763;42.714;23.244;2023-07-08T10:54:36;94885.09;;;27.50;53.81
11415;BME280;5763;42.714;23.244;2023-07-08T10:57:19;94879.44;;;27.43;49.61
11415;BME280;5763;42.714;23.244;2023-07-08T10:59:57;94874.84;;;27.60;50.02
11415;BME280;5763;42.714;23.244;2023-07-08T11:02:40;94875.03;;;27.70;48.90
11415;BME280;5763;42.714;23.244;2023-07-08T11:05:23;94861.16;;;27.72;47.50
11415;BME280;5763;42.714;23.244;2023-07-08T11:07:57;94857.88;;;27.88;49.93
11415;BME280;5763;42.714;23.244;2023-07-08T11:10:29;94871.38;;;27.90;48.97
11415;BME280;5763;42.714;23.244;2023-07-08T11:13:02;94863.16;;;28.07;48.50
11415;BME280;5763;42.714;23.244;2023-07-08T11:15:35;94861.13;;;28.22;46.73
11415;BME280;5763;42.714;23.244;2023-07-08T11:18:08;94854.56;;;28.27;46.03
11415;BME280;5763;42.714;23.244;2023-07-08T11:20:43;94857.19;;;28.48;47.44
11415;BME280;5763;42.714;23.244;2023-07-08T11:23:21;94845.00;;;28.53;48.96
11415;BME280;5763;42.714;23.244;2023-07-08T11:25:54;94846.69;;;28.63;48.20
11415;BME280;5763;42.714;23.244;2023-07-08T11:28:27;94844.81;;;28.51;47.90
11415;BME280;5763;42.714;23.244;2023-07-08T11:30:58;94840.50;;;28.57;45.79
11415;BME280;5763;42.714;23.244;2023-07-08T11:33:28;94849.69;;;28.65;43.52
11415;BME280;5763;42.714;23.244;2023-07-08T11:35:59;94854.38;;;28.70;46.13
11415;BME280;5763;42.714;23.244;2023-07-08T11:38:27;94840.84;;;28.76;47.87
11415;BME280;5763;42.714;23.244;2023-07-08T11:40:56;94848.34;;;28.81;44.47
11415;BME280;5763;42.714;23.244;2023-07-08T11:43:26;94865.09;;;28.64;43.97
11415;BME280;5763;42.714;23.244;2023-07-08T11:45:56;94849.13;;;28.52;42.76
11415;BME280;5763;42.714;23.244;2023-07-08T11:48:26;94859.28;;;28.55;43.09
11415;BME280;5763;42.714;23.244;2023-07-08T11:50:55;94851.69;;;27.97;44.66
11415;BME280;5763;42.714;23.244;2023-07-08T11:53:35;94845.97;;;27.67;46.60
11415;BME280;5763;42.714;23.244;2023-07-08T11:56:06;94849.63;;;27.98;47.65
11415;BME280;5763;42.714;23.244;2023-07-08T11:58:58;94852.09;;;28.16;45.60
11415;BME280;5763;42.714;23.244;2023-07-08T12:01:32;94854.84;;;27.79;44.12
11415;BME280;5763;42.714;23.244;2023-07-08T12:04:16;94850.97;;;27.46;45.30
11415;BME280;5763;42.714;23.244;2023-07-08T12:06:47;94861.72;;;27.78;45.39
11415;BME280;5763;42.714;23.244;2023-07-08T12:09:22;94843.31;;;27.62;46.32
11415;BME280;5763;42.714;23.244;2023-07-08T12:11:54;94850.88;;;27.24;46.90
11415;BME280;5763;42.714;23.244;2023-07-08T12:14:22;94842.78;;;26.92;48.92
11415;BME280;5763;42.714;23.244;2023-07-08T12:16:49;94853.38;;;26.79;47.70
11415;BME280;5763;42.714;23.244;2023-07-08T12:19:17;94842.66;;;26.98;49.87
11415;BME280;5763;42.714;23.244;2023-07-08T12:21:45;94851.31;;;27.43;49.09
11415;BME280;5763;42.714;23.244;2023-07-08T12:24:13;94847.84;;;27.65;46.95
11415;BME280;5763;42.714;23.244;2023-07-08T12:26:42;94842.84;;;27.86;44.59
11415;BME280;5763;42.714;23.244;2023-07-08T12:29:11;94844.56;;;28.26;43.94
11415;BME280;5763;42.714;23.244;2023-07-08T12:31:39;94841.78;;;28.56;47.02
11415;BME280;5763;42.714;23.244;2023-07-08T12:34:11;94845.94;;;28.48;46.59
11415;BME280;5763;42.714;23.244;2023-07-08T12:36:39;94842.38;;;28.40;47.49
11415;BME280;5763;42.714;23.244;2023-07-08T12:39:07;94834.66;;;28.40;45.11
11415;BME280;5763;42.714;23.244;2023-07-08T12:41:37;94851.34;;;28.31;43.22
11415;BME280;5763;42.714;23.244;2023-07-08T12:44:15;94835.59;;;28.58;44.92
11415;BME280;5763;42.714;23.244;2023-07-08T12:46:44;94838.38;;;28.88;44.19
11415;BME280;5763;42.714;23.244;2023-07-08T12:49:12;94837.47;;;28.48;45.60
11415;BME280;5763;42.714;23.244;2023-07-08T12:51:43;94843.28;;;28.20;43.79
11415;BME280;5763;42.714;23.244;2023-07-08T12:54:11;94824.66;;;27.94;46.45
11415;BME280;5763;42.714;23.244;2023-07-08T12:56:40;94823.00;;;28.06;45.24
11415;BME280;5763;42.714;23.244;2023-07-08T12:59:13;94833.31;;;28.34;44.44
11415;BME280;5763;42.714;23.244;2023-07-08T13:01:41;94837.09;;;28.14;44.80
11415;BME280;5763;42.714;23.244;2023-07-08T13:04:10;94832.53;;;27.88;44.40
11415;BME280;5763;42.714;23.244;2023-07-08T13:06:39;94845.59;;;27.71;46.11
11415;BME280;5763;42.714;23.244;2023-07-08T13:09:11;94844.19;;;27.42;45.21
11415;BME280;5763;42.714;23.244;2023-07-08T13:11:44;94835.31;;;27.23;44.93
11415;BME280;5763;42.714;23.244;2023-07-08T13:14:14;94842.91;;;27.15;46.82
11415;BME280;5763;42.714;23.244;2023-07-08T13:16:41;94828.66;;;26.77;48.87